This is the latest recevied weather packets stored in our database for station/object YBBN. If no packets are shown the sender has not sent any weather packets the latest 10 day(s).
| Time | Temp. | Humidity | Pressure | Rain* | Wind** | Luminosity | Snow |
|---|---|---|---|---|---|---|---|
| 1787734429 | 18.89° C | 88% | 1010 hPa | - | - | - | - |
| 1787733828 | 18.89° C | 88% | 1010 hPa | - | - | - | - |
| 1787733229 | - | - | 1011 hPa | - | - | - | - |
| 1787732626 | - | - | 1011 hPa | - | - | - | - |
| 1787732027 | - | - | 1011 hPa | - | - | - | - |
| 1787731428 | 20° C | 82% | 1019 hPa | - | - | - | - |
| 1787730827 | 20° C | 82% | 1019 hPa | - | - | - | - |
| 1787730229 | 20° C | 82% | 1019 hPa | - | - | - | - |
| 1787729626 | 20° C | 82% | 1018 hPa | - | - | - | - |
| 1787729027 | 20° C | 82% | 1018 hPa | - | - | - | - |
| 1787728426 | 20° C | 82% | 1018 hPa | - | - | - | - |
| 1787727826 | 20.56° C | 77% | 1018 hPa | - | - | - | - |
| 1787727227 | 20.56° C | 77% | 1018 hPa | - | - | - | - |
| 1787726627 | 20.56° C | 77% | 1018 hPa | - | - | - | - |
| 1787726027 | 21.67° C | 73% | 1017 hPa | - | - | - | - |
| 1787725427 | 21.67° C | 73% | 1017 hPa | - | - | - | - |
| 1787724829 | 21.67° C | 73% | 1017 hPa | - | - | - | - |
| 1787724228 | 25.56° C | 44% | 1017 hPa | - | - | - | - |
| 1787723625 | 25.56° C | 44% | 1017 hPa | - | - | - | - |
| 1787723026 | 25.56° C | 44% | 1017 hPa | - | - | - | - |
| 1787722429 | 25° C | 50% | 1017 hPa | - | - | - | - |
| 1787721830 | 25° C | 50% | 1017 hPa | - | - | - | - |
| 1787721227 | 25° C | 50% | 1017 hPa | - | - | - | - |
| 1787720625 | 23.89° C | 53% | 1018 hPa | - | - | - | - |
| 1787720033 | 23.89° C | 53% | 1018 hPa | - | - | - | - |
* Rain since midnight (hover to see other rain measurements)
** Current wind speed in m/s (hover to see current wind gust speed)